Time;durP1;ratioP1;P1;durP2;ratioP2;P2;SDS_P1;SDS_P2;PMS_P1;PMS_P2;Temp;Humidity;BMP_temperature;BMP_pressure;BME280_temperature;BME280_humidity;BME280_pressure;Samples;Min_cycle;Max_cycle;Signal;HPM_P1;HPM_P2
2022/03/11 00:02:07;;;;;;;15.77;10.50;;;5.10;99.90;;;;;;4916270;29;20240;-60
2022/03/11 00:04:39;;;;;;;13.37;10.57;;;5.10;99.90;;;;;;4916169;29;20271;-59
2022/03/11 00:07:07;;;;;;;15.83;10.53;;;5.00;99.90;;;;;;4916261;29;20712;-59
2022/03/11 00:09:36;;;;;;;15.13;11.77;;;5.00;99.90;;;;;;4916075;29;20913;-59
2022/03/11 00:12:07;;;;;;;14.57;10.77;;;5.00;99.90;;;;;;4916139;29;20236;-59
2022/03/11 00:14:36;;;;;;;14.33;10.80;;;5.00;99.90;;;;;;4916080;29;20240;-59
2022/03/11 00:17:05;;;;;;;15.33;10.87;;;5.00;99.90;;;;;;4915594;29;20244;-59
2022/03/11 00:19:35;;;;;;;14.93;10.67;;;5.00;99.90;;;;;;4916005;29;20237;-59
2022/03/11 00:22:04;;;;;;;13.47;10.80;;;4.90;99.90;;;;;;4921848;29;20240;-59
2022/03/11 00:24:34;;;;;;;14.77;11.00;;;5.00;99.90;;;;;;4934886;29;20499;-59
2022/03/11 00:27:03;;;;;;;16.10;11.27;;;4.90;99.90;;;;;;4934808;29;20740;-59
2022/03/11 00:29:32;;;;;;;13.37;10.43;;;4.80;99.90;;;;;;4899321;29;20319;-60
2022/03/11 00:32:01;;;;;;;14.37;10.80;;;4.80;99.90;;;;;;4915674;29;20488;-60
2022/03/11 00:34:29;;;;;;;16.07;11.27;;;4.70;99.90;;;;;;4900241;29;20236;-60
2022/03/11 00:36:58;;;;;;;14.83;10.93;;;4.60;99.90;;;;;;4915760;29;20240;-60
2022/03/11 00:39:27;;;;;;;14.47;10.73;;;4.60;99.90;;;;;;4915844;29;20780;-60
2022/03/11 00:41:56;;;;;;;14.03;10.70;;;4.60;99.90;;;;;;4915692;29;20248;-59
2022/03/11 00:44:25;;;;;;;15.77;11.10;;;4.50;99.90;;;;;;4915665;29;20322;-60
2022/03/11 00:46:53;;;;;;;17.30;12.17;;;4.50;99.90;;;;;;4914950;29;20241;-59
2022/03/11 00:49:21;;;;;;;16.23;10.47;;;4.50;99.90;;;;;;4916495;29;20555;-60
2022/03/11 00:51:50;;;;;;;14.97;10.90;;;4.50;99.90;;;;;;4928291;29;20623;-59
2022/03/11 00:54:19;;;;;;;16.03;11.20;;;4.60;99.90;;;;;;4928131;29;20244;-59
2022/03/11 00:56:47;;;;;;;13.27;9.83;;;4.50;99.90;;;;;;4896606;29;20241;-59
2022/03/11 00:59:17;;;;;;;17.27;11.80;;;4.50;99.90;;;;;;4914035;29;20315;-60
2022/03/11 01:01:45;;;;;;;16.67;10.83;;;4.40;99.90;;;;;;4915600;29;20489;-60
2022/03/11 01:04:13;;;;;;;14.73;10.93;;;4.40;99.90;;;;;;4915086;29;20240;-60
2022/03/11 01:06:41;;;;;;;15.97;11.03;;;4.40;99.90;;;;;;4915129;29;20359;-59
2022/03/11 01:09:09;;;;;;;14.30;10.77;;;4.40;99.90;;;;;;4931569;29;20252;-60
2022/03/11 01:11:39;;;;;;;13.17;10.13;;;4.40;99.90;;;;;;4934142;29;20228;-60
2022/03/11 01:14:07;;;;;;;14.77;10.83;;;4.30;99.90;;;;;;4917514;29;20529;-59
2022/03/11 01:16:36;;;;;;;15.83;10.83;;;4.30;99.90;;;;;;4913895;29;20259;-59
2022/03/11 01:19:04;;;;;;;15.40;9.67;;;4.20;99.90;;;;;;4916372;29;20241;-59
2022/03/11 01:21:32;;;;;;;14.17;10.47;;;4.30;99.90;;;;;;4916786;29;20485;-60
2022/03/11 01:24:00;;;;;;;13.33;9.60;;;4.20;99.90;;;;;;4933702;29;20301;-60
2022/03/11 01:26:29;;;;;;;14.23;10.90;;;4.20;99.90;;;;;;4932127;29;20294;-59
2022/03/11 01:28:58;;;;;;;14.00;10.47;;;4.20;99.90;;;;;;4930067;29;20247;-60
2022/03/11 01:31:26;;;;;;;16.23;10.83;;;4.10;99.90;;;;;;4925726;29;20897;-60
2022/03/11 01:33:54;;;;;;;14.27;10.17;;;4.00;99.90;;;;;;4914392;29;20468;-59
2022/03/11 01:36:22;;;;;;;13.47;9.43;;;4.10;99.90;;;;;;4914816;29;21022;-59
2022/03/11 01:38:50;;;;;;;13.33;8.60;;;4.00;99.90;;;;;;4929000;29;20467;-59
2022/03/11 01:41:19;;;;;;;16.20;9.93;;;4.00;99.90;;;;;;4933768;29;20262;-59
2022/03/11 01:43:51;;;;;;;11.83;9.77;;;4.00;99.90;;;;;;4934020;29;20240;-60
2022/03/11 01:46:21;;;;;;;15.10;9.87;;;4.00;99.90;;;;;;4924044;29;20533;-60
2022/03/11 01:48:50;;;;;;;13.67;9.93;;;4.00;99.90;;;;;;4928642;29;20467;-60
2022/03/11 01:51:18;;;;;;;14.93;9.37;;;4.00;99.90;;;;;;4934139;29;20998;-59
2022/03/11 01:53:46;;;;;;;14.30;10.00;;;3.90;99.90;;;;;;4920060;29;20471;-59
2022/03/11 01:56:14;;;;;;;13.77;9.43;;;4.00;99.90;;;;;;4914775;29;20544;-59
2022/03/11 01:58:43;;;;;;;12.53;8.83;;;3.90;99.90;;;;;;4897701;29;20548;-60
2022/03/11 02:01:11;;;;;;;12.60;9.50;;;3.90;99.90;;;;;;4914985;29;20248;-60
2022/03/11 02:03:40;;;;;;;14.73;9.70;;;3.80;99.90;;;;;;4912281;29;20557;-59
2022/03/11 02:06:09;;;;;;;13.63;10.00;;;3.80;99.90;;;;;;4909913;29;20331;-60
2022/03/11 02:08:38;;;;;;;13.50;8.93;;;3.80;99.90;;;;;;4901668;29;20487;-59
2022/03/11 02:11:06;;;;;;;13.37;9.13;;;3.80;99.90;;;;;;4933505;29;20484;-59
2022/03/11 02:13:45;;;;;;;16.70;10.13;;;3.80;99.90;;;;;;4921219;29;20240;-59
2022/03/11 02:16:14;;;;;;;13.43;9.03;;;3.80;99.90;;;;;;4913208;29;20507;-58
2022/03/11 02:18:44;;;;;;;13.27;8.47;;;3.70;99.90;;;;;;4919420;29;20520;-59
2022/03/11 02:21:14;;;;;;;14.53;8.80;;;3.70;99.90;;;;;;4917880;29;20488;-58
2022/03/11 02:23:45;;;;;;;12.90;8.70;;;3.60;99.90;;;;;;4923656;29;20482;-59
2022/03/11 02:26:14;;;;;;;12.13;8.73;;;3.60;99.90;;;;;;4918127;29;20496;-59
2022/03/11 02:28:42;;;;;;;13.00;8.53;;;3.70;99.90;;;;;;4917924;29;20485;-59
2022/03/11 02:31:11;;;;;;;12.33;8.40;;;3.60;99.90;;;;;;4917946;29;20899;-59
2022/03/11 02:33:40;;;;;;;12.57;8.87;;;3.60;99.90;;;;;;4930581;29;20535;-59
2022/03/11 02:36:09;;;;;;;11.63;8.27;;;3.60;99.90;;;;;;4921226;29;21029;-59
2022/03/11 02:38:38;;;;;;;12.60;8.57;;;3.60;99.90;;;;;;4918085;29;20471;-60
2022/03/11 02:41:08;;;;;;;11.37;7.97;;;3.50;99.90;;;;;;4918238;29;21028;-60
2022/03/11 02:43:36;;;;;;;10.87;7.73;;;3.60;99.90;;;;;;4917987;29;20496;-59
2022/03/11 02:46:05;;;;;;;12.43;7.53;;;3.50;99.90;;;;;;4917430;29;20479;-60
2022/03/11 02:48:34;;;;;;;11.07;7.63;;;3.50;99.90;;;;;;4919002;29;20467;-60
2022/03/11 02:51:02;;;;;;;11.67;7.90;;;3.50;99.90;;;;;;4917766;29;20512;-60
2022/03/11 02:53:30;;;;;;;10.50;7.70;;;3.40;99.90;;;;;;4929156;29;20548;-59
2022/03/11 02:55:59;;;;;;;12.00;7.80;;;3.40;99.90;;;;;;4921555;29;20487;-60
2022/03/11 02:58:28;;;;;;;13.40;7.73;;;3.40;99.90;;;;;;4928556;29;20523;-59
2022/03/11 03:00:56;;;;;;;10.57;7.43;;;3.40;99.90;;;;;;4929948;29;20476;-59
2022/03/11 03:03:25;;;;;;;12.60;7.77;;;3.40;99.90;;;;;;4917334;29;20492;-60
2022/03/11 03:05:53;;;;;;;10.37;6.77;;;3.30;99.90;;;;;;4917369;29;20894;-59
2022/03/11 03:08:21;;;;;;;10.30;7.67;;;3.20;99.90;;;;;;4917039;29;20515;-59
2022/03/11 03:10:49;;;;;;;10.60;6.57;;;3.30;99.90;;;;;;4917458;29;20475;-59
2022/03/11 03:13:18;;;;;;;10.17;7.00;;;3.30;99.90;;;;;;4917095;29;20519;-59
2022/03/11 03:15:47;;;;;;;11.83;7.10;;;3.30;99.90;;;;;;4916913;29;20841;-59
2022/03/11 03:18:16;;;;;;;9.17;6.50;;;3.20;99.90;;;;;;4916955;29;20499;-59
2022/03/11 03:20:44;;;;;;;10.37;7.13;;;3.20;99.90;;;;;;4917151;29;20904;-59
2022/03/11 03:23:12;;;;;;;8.90;6.60;;;3.20;99.90;;;;;;4916870;29;20475;-59
2022/03/11 03:25:41;;;;;;;10.30;7.30;;;3.20;99.90;;;;;;4917149;29;20483;-59
2022/03/11 03:28:09;;;;;;;9.87;6.90;;;3.20;99.90;;;;;;4925788;29;20473;-58
2022/03/11 03:30:37;;;;;;;10.07;6.63;;;3.20;99.90;;;;;;4936642;29;20475;-59
2022/03/11 03:33:08;;;;;;;11.20;6.93;;;3.20;99.90;;;;;;4927509;29;20558;-59
2022/03/11 03:35:36;;;;;;;9.67;6.73;;;3.10;99.90;;;;;;4917078;29;20534;-59
2022/03/11 03:38:07;;;;;;;9.07;6.70;;;3.10;99.90;;;;;;4917014;29;20539;-59
2022/03/11 03:40:35;;;;;;;10.83;6.83;;;3.10;99.90;;;;;;4916662;29;20500;-59
2022/03/11 03:43:03;;;;;;;8.70;6.67;;;3.10;99.90;;;;;;4916581;29;20469;-59
2022/03/11 03:45:31;;;;;;;9.47;6.40;;;3.10;99.90;;;;;;4916580;29;20463;-59
2022/03/11 03:48:00;;;;;;;9.40;6.13;;;3.10;99.90;;;;;;4912513;29;20557;-59
2022/03/11 03:50:29;;;;;;;9.93;6.53;;;3.00;99.90;;;;;;4916526;29;20475;-59
2022/03/11 03:52:58;;;;;;;9.57;6.90;;;2.90;99.90;;;;;;4923832;29;20506;-59
2022/03/11 03:55:26;;;;;;;9.50;6.30;;;2.90;99.90;;;;;;4925108;29;20477;-59
2022/03/11 03:57:54;;;;;;;9.33;6.63;;;2.90;99.90;;;;;;4916621;29;20542;-59
2022/03/11 04:00:22;;;;;;;11.37;6.60;;;2.90;99.90;;;;;;4916269;29;20476;-60
2022/03/11 04:02:51;;;;;;;11.50;7.03;;;2.90;99.90;;;;;;4922640;29;20544;-58
2022/03/11 04:05:20;;;;;;;12.07;6.67;;;2.80;99.90;;;;;;4935469;29;20568;-59
2022/03/11 04:07:52;;;;;;;11.33;6.90;;;2.90;99.90;;;;;;4934832;29;20499;-59
2022/03/11 04:10:20;;;;;;;9.70;6.60;;;2.80;99.90;;;;;;4935275;29;21462;-59
2022/03/11 04:12:48;;;;;;;10.50;6.70;;;2.80;99.90;;;;;;4935014;29;20496;-59
2022/03/11 04:15:16;;;;;;;8.93;6.50;;;2.70;99.90;;;;;;4925653;29;20512;-59
2022/03/11 04:17:44;;;;;;;9.73;6.47;;;2.80;99.90;;;;;;4916964;29;20481;-59
2022/03/11 04:20:12;;;;;;;11.13;7.13;;;2.70;99.90;;;;;;4916330;29;20480;-59
2022/03/11 04:22:42;;;;;;;10.27;6.77;;;2.70;99.90;;;;;;4920778;29;20485;-59
2022/03/11 04:25:13;;;;;;;9.73;6.23;;;2.60;99.90;;;;;;4934984;29;21046;-59
2022/03/11 04:27:41;;;;;;;10.27;6.80;;;2.70;99.90;;;;;;4929735;29;20484;-58
2022/03/11 04:30:10;;;;;;;11.40;7.03;;;2.70;99.90;;;;;;4915494;29;20238;-60
2022/03/11 04:32:39;;;;;;;14.60;6.97;;;2.60;99.90;;;;;;4916142;29;20816;-59
2022/03/11 04:35:08;;;;;;;8.33;5.93;;;2.60;99.90;;;;;;4915853;29;20480;-59
2022/03/11 04:37:36;;;;;;;9.80;6.90;;;2.60;99.90;;;;;;4916062;29;20519;-59
2022/03/11 04:40:06;;;;;;;10.57;7.10;;;2.50;99.90;;;;;;4915801;29;20551;-59
2022/03/11 04:42:36;;;;;;;11.97;6.70;;;2.50;99.90;;;;;;4916082;29;20500;-59
2022/03/11 04:45:05;;;;;;;9.63;6.60;;;2.50;99.90;;;;;;4916020;29;20554;-59
2022/03/11 04:47:33;;;;;;;9.87;6.30;;;2.50;99.90;;;;;;4916167;29;20499;-59
2022/03/11 04:50:02;;;;;;;12.00;6.90;;;2.50;99.90;;;;;;4915548;29;20494;-59
2022/03/11 04:52:30;;;;;;;11.33;6.80;;;2.40;99.90;;;;;;4919090;29;20554;-59
2022/03/11 04:54:58;;;;;;;11.13;6.87;;;2.40;99.90;;;;;;4927458;29;20485;-59
2022/03/11 04:57:26;;;;;;;10.47;6.37;;;2.40;99.90;;;;;;4915452;29;20542;-59
2022/03/11 04:59:55;;;;;;;13.30;7.20;;;2.40;99.90;;;;;;4915369;29;20473;-59
2022/03/11 05:02:26;;;;;;;10.20;6.80;;;2.40;99.90;;;;;;4917918;29;20526;-59
2022/03/11 05:04:54;;;;;;;11.97;7.00;;;2.20;99.90;;;;;;4934443;29;20809;-59
2022/03/11 05:07:22;;;;;;;10.93;6.10;;;2.30;99.90;;;;;;4931670;29;20483;-59
2022/03/11 05:09:51;;;;;;;11.43;7.00;;;2.20;99.90;;;;;;4915340;29;20480;-59
2022/03/11 05:12:19;;;;;;;10.53;6.77;;;2.30;99.90;;;;;;4915103;29;20473;-59
2022/03/11 05:14:50;;;;;;;12.37;7.27;;;2.30;99.90;;;;;;4914546;29;20997;-59
2022/03/11 05:17:20;;;;;;;9.73;7.40;;;2.20;99.90;;;;;;4915121;29;20558;-58
2022/03/11 05:19:49;;;;;;;10.87;7.57;;;2.30;99.90;;;;;;4914894;29;20899;-59
2022/03/11 05:22:18;;;;;;;11.97;7.50;;;2.20;99.90;;;;;;4920246;29;20909;-59
2022/03/11 05:24:47;;;;;;;10.77;7.30;;;2.20;99.90;;;;;;4913742;29;20486;-58
2022/03/11 05:27:16;;;;;;;12.17;7.37;;;2.20;99.90;;;;;;4915929;29;20478;-58
2022/03/11 05:29:44;;;;;;;9.90;6.87;;;2.10;99.90;;;;;;4915028;29;20481;-59
2022/03/11 05:32:14;;;;;;;10.83;7.77;;;2.10;99.90;;;;;;4914744;29;20514;-59
2022/03/11 05:34:44;;;;;;;11.33;7.13;;;2.10;99.90;;;;;;4914931;29;20539;-59
2022/03/11 05:37:12;;;;;;;11.23;8.10;;;2.10;99.90;;;;;;4916115;29;20543;-59
2022/03/11 05:39:41;;;;;;;11.67;7.50;;;2.00;99.90;;;;;;4933646;29;20484;-58
2022/03/11 05:42:09;;;;;;;10.93;7.27;;;2.10;99.90;;;;;;4932842;29;20473;-59
2022/03/11 05:44:37;;;;;;;8.63;6.13;;;2.10;99.90;;;;;;4915109;29;21039;-59
2022/03/11 05:47:05;;;;;;;11.27;6.83;;;2.10;99.90;;;;;;4914181;29;20518;-59
2022/03/11 05:49:34;;;;;;;11.20;7.73;;;2.00;99.90;;;;;;4913901;29;20475;-59
2022/03/11 05:52:04;;;;;;;10.33;7.27;;;1.90;99.90;;;;;;4913826;29;20472;-57
2022/03/11 05:54:32;;;;;;;10.43;6.83;;;1.90;99.90;;;;;;4914946;29;20835;-59
2022/03/11 05:57:04;;;;;;;13.20;7.03;;;2.00;99.90;;;;;;4917590;29;20487;-59
2022/03/11 05:59:32;;;;;;;14.23;8.53;;;2.00;99.90;;;;;;4915136;29;20543;-59
2022/03/11 06:02:01;;;;;;;14.13;7.17;;;1.90;99.90;;;;;;4914622;29;20845;-59
2022/03/11 06:04:33;;;;;;;12.10;7.50;;;1.80;99.90;;;;;;4895807;29;20535;-59
2022/03/11 06:07:01;;;;;;;10.97;7.57;;;1.90;99.90;;;;;;4905370;29;20467;-59
2022/03/11 06:09:30;;;;;;;14.80;8.23;;;1.80;99.90;;;;;;4914027;29;20510;-59
2022/03/11 06:11:59;;;;;;;14.30;7.57;;;1.90;99.90;;;;;;4914499;29;20896;-59
2022/03/11 06:14:27;;;;;;;13.10;7.80;;;1.80;99.90;;;;;;4914337;29;20478;-59
2022/03/11 06:16:55;;;;;;;14.43;7.80;;;1.80;99.90;;;;;;4914449;29;20888;-59
2022/03/11 06:19:24;;;;;;;14.80;7.93;;;1.80;99.90;;;;;;4914534;29;20891;-59
2022/03/11 06:21:55;;;;;;;11.13;7.10;;;1.90;99.90;;;;;;4914336;29;20515;-59
2022/03/11 06:24:23;;;;;;;12.73;8.17;;;1.80;99.90;;;;;;4914112;29;20534;-59
2022/03/11 06:26:53;;;;;;;14.03;7.57;;;1.80;99.90;;;;;;4914290;29;20536;-61
2022/03/11 06:29:21;;;;;;;14.23;7.50;;;1.90;99.90;;;;;;4932079;29;20561;-61
2022/03/11 06:31:49;;;;;;;10.80;7.17;;;1.90;99.90;;;;;;4930715;29;20841;-61
2022/03/11 06:34:17;;;;;;;15.07;9.10;;;1.90;99.90;;;;;;4914220;29;20483;-60
2022/03/11 06:36:46;;;;;;;12.23;8.07;;;2.00;99.90;;;;;;4915559;29;21026;-61
2022/03/11 06:39:14;;;;;;;13.10;7.20;;;2.00;99.90;;;;;;4931373;29;20506;-59
2022/03/11 06:41:43;;;;;;;13.10;8.07;;;2.10;99.90;;;;;;4927137;29;20563;-61
2022/03/11 06:44:17;;;;;;;13.80;7.03;;;2.20;99.90;;;;;;4914347;29;20474;-61
2022/03/11 06:46:46;;;;;;;12.87;7.87;;;2.20;99.90;;;;;;4913767;29;20482;-61
2022/03/11 06:49:14;;;;;;;14.00;7.63;;;2.30;99.90;;;;;;4913343;29;20465;-60
2022/03/11 06:51:42;;;;;;;14.43;7.87;;;2.30;99.90;;;;;;4914025;29;20909;-61
2022/03/11 06:54:10;;;;;;;16.53;8.63;;;2.40;99.90;;;;;;4933489;29;20997;-61
2022/03/11 06:56:38;;;;;;;12.67;7.93;;;2.40;99.90;;;;;;4917274;29;20473;-60
2022/03/11 06:59:08;;;;;;;15.93;8.00;;;2.50;99.90;;;;;;4917608;29;20479;-59
2022/03/11 07:01:38;;;;;;;17.80;9.93;;;2.60;99.90;;;;;;4917795;29;20507;-59
2022/03/11 07:04:06;;;;;;;19.00;9.73;;;2.50;99.90;;;;;;4917493;29;20890;-59
2022/03/11 07:06:34;;;;;;;20.20;11.27;;;2.60;99.90;;;;;;4917352;29;20471;-59
2022/03/11 07:09:03;;;;;;;13.40;7.33;;;2.90;99.90;;;;;;4917121;29;20558;-58
2022/03/11 07:11:32;;;;;;;12.73;7.77;;;3.00;99.90;;;;;;4917398;29;20493;-59
2022/03/11 07:14:01;;;;;;;13.17;7.63;;;3.10;99.90;;;;;;4917992;29;20528;-59
2022/03/11 07:16:29;;;;;;;10.00;7.03;;;3.20;99.90;;;;;;4935036;29;20475;-59
2022/03/11 07:18:59;;;;;;;10.60;7.33;;;3.30;99.90;;;;;;4928620;29;20488;-59
2022/03/11 07:21:27;;;;;;;12.13;7.60;;;3.40;99.90;;;;;;4924501;29;20547;-61
2022/03/11 07:23:56;;;;;;;11.73;7.33;;;3.50;99.90;;;;;;4928734;29;20491;-58
2022/03/11 07:26:24;;;;;;;12.37;7.73;;;3.50;99.90;;;;;;4916317;29;21050;-59
2022/03/11 07:28:52;;;;;;;13.03;8.00;;;3.60;99.90;;;;;;4917793;29;20559;-59
2022/03/11 07:31:27;;;;;;;12.20;8.17;;;3.80;99.90;;;;;;4919233;29;20434;-59
2022/03/11 07:33:55;;;;;;;11.90;7.33;;;3.80;99.90;;;;;;4918814;29;20463;-59
2022/03/11 07:36:27;;;;;;;13.33;7.43;;;3.80;99.90;;;;;;4916227;29;20477;-60
2022/03/11 07:38:56;;;;;;;13.57;7.57;;;3.90;99.90;;;;;;4914884;29;20916;-61
2022/03/11 07:41:29;;;;;;;13.50;6.40;;;3.90;99.90;;;;;;4916437;29;20507;-58
2022/03/11 07:43:58;;;;;;;14.80;8.27;;;4.00;99.90;;;;;;4919130;29;21050;-58
2022/03/11 07:46:42;;;;;;;11.60;7.73;;;4.10;99.90;;;;;;4916549;29;20538;-59
2022/03/11 07:49:11;;;;;;;11.13;7.57;;;4.10;99.90;;;;;;4915250;29;20240;-58
2022/03/11 07:51:41;;;;;;;13.70;7.73;;;4.20;99.90;;;;;;4914757;29;20533;-56
2022/03/11 07:54:09;;;;;;;11.50;7.63;;;4.40;99.90;;;;;;4916651;29;20470;-58
2022/03/11 07:56:37;;;;;;;11.17;8.10;;;4.60;99.90;;;;;;4916468;29;20499;-58
2022/03/11 07:59:06;;;;;;;11.90;8.27;;;4.60;99.90;;;;;;4932405;29;21008;-58
2022/03/11 08:01:35;;;;;;;13.97;7.93;;;4.60;99.90;;;;;;4930007;29;20547;-58
2022/03/11 08:04:05;;;;;;;11.20;6.83;;;4.80;99.90;;;;;;4931203;29;20479;-59
2022/03/11 08:06:33;;;;;;;9.97;7.03;;;4.50;99.90;;;;;;4935345;29;20490;-58
2022/03/11 08:09:02;;;;;;;12.10;7.53;;;4.70;99.90;;;;;;4934779;29;20243;-58
2022/03/11 08:11:30;;;;;;;10.17;6.97;;;5.00;99.90;;;;;;4934472;29;20632;-57
2022/03/11 08:13:59;;;;;;;10.83;6.80;;;5.10;99.90;;;;;;4917880;29;21013;-58
2022/03/11 08:16:27;;;;;;;12.47;5.87;;;5.10;99.90;;;;;;4915708;29;20911;-59
2022/03/11 08:18:56;;;;;;;10.83;6.77;;;6.20;99.90;;;;;;4916108;29;20236;-58
2022/03/11 08:21:24;;;;;;;10.07;7.47;;;6.50;99.90;;;;;;4918498;29;20315;-58
2022/03/11 08:23:52;;;;;;;12.50;7.47;;;6.20;99.90;;;;;;4922257;29;20588;-57
2022/03/11 08:26:23;;;;;;;11.13;7.13;;;5.60;99.90;;;;;;4919624;29;20228;-57
2022/03/11 08:28:51;;;;;;;9.87;6.37;;;5.70;99.90;;;;;;4920392;29;20319;-59
2022/03/11 08:31:39;;;;;;;10.17;6.73;;;5.70;99.90;;;;;;4917865;29;20229;-57
2022/03/11 08:34:09;;;;;;;9.23;6.70;;;5.60;99.90;;;;;;4915962;29;20484;-59
2022/03/11 08:36:39;;;;;;;10.97;6.20;;;5.70;99.90;;;;;;4915491;29;20648;-59
2022/03/11 08:39:09;;;;;;;9.57;6.70;;;5.70;99.90;;;;;;4916160;29;20236;-59
2022/03/11 08:41:38;;;;;;;13.07;7.77;;;5.80;99.90;;;;;;4920698;29;20726;-60
2022/03/11 08:44:07;;;;;;;14.67;8.97;;;5.90;99.90;;;;;;4913957;29;20268;-60
2022/03/11 08:46:37;;;;;;;13.40;8.50;;;6.10;99.90;;;;;;4916685;29;20320;-60
2022/03/11 08:49:07;;;;;;;12.77;7.73;;;6.10;99.90;;;;;;4920015;29;20241;-60
2022/03/11 08:51:37;;;;;;;10.10;6.30;;;6.10;99.90;;;;;;4919552;29;20247;-60
2022/03/11 08:54:05;;;;;;;9.97;6.83;;;6.10;99.90;;;;;;4916029;29;20254;-60
2022/03/11 08:56:33;;;;;;;11.97;7.17;;;6.10;99.90;;;;;;4920924;29;20236;-60
2022/03/11 08:59:03;;;;;;;12.53;7.73;;;6.30;99.90;;;;;;4919125;29;20236;-59
2022/03/11 09:01:31;;;;;;;9.97;6.03;;;6.40;99.90;;;;;;4920613;29;20264;-60
2022/03/11 09:03:59;;;;;;;10.97;6.60;;;6.30;99.90;;;;;;4918263;29;20251;-60
2022/03/11 09:06:28;;;;;;;9.30;5.93;;;6.20;99.90;;;;;;4918116;29;20296;-60
2022/03/11 09:08:56;;;;;;;10.63;6.37;;;6.40;99.90;;;;;;4915975;29;20644;-60
2022/03/11 09:11:24;;;;;;;8.73;6.40;;;6.60;99.90;;;;;;4918276;29;20245;-60
2022/03/11 09:13:53;;;;;;;12.37;6.73;;;6.70;99.60;;;;;;4915699;29;20303;-59
2022/03/11 09:16:22;;;;;;;11.53;6.20;;;6.70;99.60;;;;;;4917053;29;20232;-59
2022/03/11 09:18:51;;;;;;;10.27;6.67;;;6.90;99.90;;;;;;4915972;29;20252;-59
2022/03/11 09:21:19;;;;;;;9.37;6.07;;;7.00;99.40;;;;;;4914751;29;20700;-60
2022/03/11 09:23:48;;;;;;;9.73;6.60;;;7.20;99.90;;;;;;4919788;29;20573;-60
2022/03/11 09:26:17;;;;;;;11.27;5.93;;;7.30;98.80;;;;;;4919931;29;20232;-59
2022/03/11 09:28:45;;;;;;;11.90;6.27;;;7.40;98.50;;;;;;4923888;29;20302;-58
2022/03/11 09:31:14;;;;;;;13.60;6.47;;;7.40;98.00;;;;;;4920838;29;20246;-60
2022/03/11 09:33:43;;;;;;;10.17;6.27;;;7.50;98.10;;;;;;4923653;29;20232;-60
2022/03/11 09:36:12;;;;;;;10.43;6.30;;;7.80;97.60;;;;;;4922083;29;20248;-60
2022/03/11 09:38:40;;;;;;;9.33;6.10;;;7.80;97.90;;;;;;4918126;29;20326;-60
2022/03/11 09:41:10;;;;;;;12.10;6.17;;;7.60;96.90;;;;;;4918706;29;20698;-60
2022/03/11 09:43:40;;;;;;;9.50;6.70;;;7.50;96.80;;;;;;4917928;29;20239;-60
2022/03/11 09:46:10;;;;;;;9.20;6.63;;;7.50;96.90;;;;;;4917807;29;20237;-60
2022/03/11 09:48:39;;;;;;;9.27;6.27;;;8.00;97.50;;;;;;4916708;29;20258;-60
2022/03/11 09:51:11;;;;;;;11.43;6.43;;;8.20;96.60;;;;;;4913343;29;20269;-60
2022/03/11 09:53:43;;;;;;;9.13;6.00;;;8.30;96.50;;;;;;4917273;29;20235;-60
2022/03/11 09:56:12;;;;;;;10.90;5.90;;;8.60;96.40;;;;;;4917467;29;20241;-60
2022/03/11 09:58:40;;;;;;;10.97;6.30;;;8.30;94.70;;;;;;4916289;29;20238;-60
2022/03/11 10:01:09;;;;;;;10.97;6.70;;;8.50;95.60;;;;;;4917708;29;20296;-60
2022/03/11 10:03:38;;;;;;;10.90;6.20;;;8.60;94.40;;;;;;4921032;29;20264;-60
2022/03/11 10:06:07;;;;;;;11.40;6.80;;;8.60;94.90;;;;;;4929041;29;20688;-60
2022/03/11 10:08:37;;;;;;;11.90;7.13;;;8.60;94.60;;;;;;4928177;29;20347;-60
2022/03/11 10:11:22;;;;;;;10.87;6.63;;;8.80;94.60;;;;;;4924006;29;20654;-60
2022/03/11 10:13:52;;;;;;;12.10;6.50;;;8.90;94.70;;;;;;4930160;29;20328;-60
2022/03/11 10:16:23;;;;;;;9.00;6.30;;;9.10;93.60;;;;;;4927696;29;20236;-58
2022/03/11 10:18:56;;;;;;;9.37;6.03;;;9.10;93.30;;;;;;4915806;29;20233;-60
2022/03/11 10:21:31;;;;;;;8.40;6.10;;;9.50;93.70;;;;;;4919418;29;20245;-59
2022/03/11 10:24:01;;;;;;;8.93;6.00;;;9.30;92.60;;;;;;4918840;29;20281;-60
2022/03/11 10:26:34;;;;;;;8.60;5.97;;;9.20;92.60;;;;;;4921157;29;20237;-60
2022/03/11 10:29:08;;;;;;;10.37;6.63;;;9.10;92.40;;;;;;4924005;29;20239;-60
2022/03/11 10:31:40;;;;;;;9.93;6.23;;;9.10;92.30;;;;;;4928763;29;20260;-60
2022/03/11 10:34:13;;;;;;;9.57;6.20;;;9.30;91.90;;;;;;4922903;29;20290;-60
2022/03/11 10:36:52;;;;;;;10.67;6.50;;;9.50;91.70;;;;;;4919307;29;20276;-60
2022/03/11 10:39:22;;;;;;;9.63;5.60;;;9.50;91.80;;;;;;4925150;29;20312;-59
2022/03/11 10:41:52;;;;;;;8.73;5.70;;;9.50;91.60;;;;;;4926139;29;20234;-60
2022/03/11 10:44:23;;;;;;;9.30;6.20;;;9.30;91.10;;;;;;4925386;29;20292;-60
2022/03/11 10:46:51;;;;;;;11.50;6.73;;;9.10;90.80;;;;;;4920644;29;20657;-60
2022/03/11 10:49:27;;;;;;;8.60;6.10;;;9.30;91.10;;;;;;4919757;29;20273;-60
2022/03/11 10:51:57;;;;;;;12.33;6.27;;;9.70;90.60;;;;;;4916346;29;20307;-60
2022/03/11 10:54:27;;;;;;;9.67;6.17;;;9.50;90.00;;;;;;4920837;29;20796;-60
2022/03/11 10:57:09;;;;;;;9.03;5.70;;;9.40;90.10;;;;;;4918713;29;20233;-60
2022/03/11 10:59:38;;;;;;;12.77;5.97;;;9.30;90.20;;;;;;4917576;29;20276;-60
2022/03/11 11:02:09;;;;;;;9.63;6.40;;;9.30;89.30;;;;;;4917760;29;20269;-60
2022/03/11 11:04:40;;;;;;;10.77;6.60;;;9.60;90.20;;;;;;4916481;29;20239;-60
2022/03/11 11:07:10;;;;;;;9.33;6.77;;;9.90;90.00;;;;;;4916714;29;20589;-60
2022/03/11 11:09:38;;;;;;;8.47;6.30;;;9.90;89.70;;;;;;4917147;29;20240;-60
2022/03/11 11:12:12;;;;;;;9.53;6.10;;;9.80;88.30;;;;;;4916979;29;20264;-60
2022/03/11 11:14:40;;;;;;;10.77;6.80;;;9.80;88.80;;;;;;4920823;29;20242;-60
2022/03/11 11:17:10;;;;;;;9.70;6.53;;;9.90;89.30;;;;;;4920499;29;20266;-60
2022/03/11 11:19:44;;;;;;;8.77;5.70;;;10.20;90.10;;;;;;4920127;29;20316;-60
2022/03/11 11:22:15;;;;;;;9.63;6.33;;;10.40;89.20;;;;;;4916188;29;20242;-60
2022/03/11 11:24:44;;;;;;;8.37;6.33;;;10.10;87.90;;;;;;4915956;29;20270;-60
2022/03/11 11:27:14;;;;;;;7.40;5.83;;;10.00;86.30;;;;;;4915430;29;20331;-60
2022/03/11 11:29:43;;;;;;;8.90;6.53;;;9.90;86.40;;;;;;4913854;29;20231;-60
2022/03/11 11:32:11;;;;;;;9.67;6.37;;;10.20;86.00;;;;;;4915008;29;20329;-60
2022/03/11 11:34:39;;;;;;;10.80;6.27;;;10.40;87.60;;;;;;4914309;29;20271;-60
2022/03/11 11:37:38;;;;;;;9.87;6.67;;;10.40;87.60;;;;;;4915859;29;20298;-59
2022/03/11 11:40:31;;;;;;;10.50;6.13;;;10.50;89.60;;;;;;4914534;29;20267;-60
2022/03/11 11:43:31;;;;;;;8.17;5.57;;;10.60;86.30;;;;;;4913830;29;20647;-60
2022/03/11 11:46:07;;;;;;;9.70;5.90;;;10.70;85.60;;;;;;4914175;29;20295;-60
2022/03/11 11:49:01;;;;;;;7.63;5.50;;;10.50;85.40;;;;;;4916836;29;20250;-60
2022/03/11 11:52:00;;;;;;;10.63;6.50;;;10.40;85.10;;;;;;4916515;29;20278;-60
2022/03/11 11:54:39;;;;;;;10.47;6.30;;;10.50;85.10;;;;;;4919935;29;20233;-60
2022/03/11 11:57:08;;;;;;;8.43;6.30;;;10.30;83.90;;;;;;4919298;29;20243;-60
2022/03/11 11:59:37;;;;;;;9.60;6.33;;;10.30;85.20;;;;;;4915808;29;20231;-60
2022/03/11 12:02:24;;;;;;;9.43;5.80;;;10.30;83.10;;;;;;4922053;29;20262;-60
2022/03/11 12:04:53;;;;;;;8.27;6.37;;;10.40;85.30;;;;;;4924060;29;20741;-60
2022/03/11 12:07:23;;;;;;;12.43;6.33;;;10.60;84.90;;;;;;4928665;29;20256;-59
2022/03/11 12:09:57;;;;;;;10.93;6.97;;;10.50;85.00;;;;;;4934506;29;20754;-60
2022/03/11 12:13:03;;;;;;;10.40;6.07;;;10.20;82.90;;;;;;4919969;29;20337;-60
2022/03/11 12:15:39;;;;;;;9.53;6.13;;;10.40;85.00;;;;;;4925094;29;20297;-60
2022/03/11 12:18:44;;;;;;;9.57;5.80;;;10.20;84.00;;;;;;4919725;29;20732;-60
2022/03/11 12:21:23;;;;;;;8.47;6.00;;;10.40;84.70;;;;;;4918265;29;20695;-60
2022/03/11 12:23:52;;;;;;;12.57;6.17;;;10.30;84.20;;;;;;4922360;29;20273;-60
2022/03/11 12:26:34;;;;;;;10.63;5.63;;;10.40;84.50;;;;;;4922830;29;20239;-60
2022/03/11 12:29:34;;;;;;;10.37;6.53;;;10.50;83.00;;;;;;4917835;29;20243;-60
2022/03/11 12:32:05;;;;;;;9.23;5.87;;;10.40;82.10;;;;;;4923316;29;20799;-60
2022/03/11 12:34:34;;;;;;;9.17;5.30;;;10.60;84.40;;;;;;4922278;29;20830;-59
2022/03/11 12:37:02;;;;;;;11.53;5.90;;;10.40;81.40;;;;;;4919576;29;20235;-59
2022/03/11 12:39:32;;;;;;;8.87;6.00;;;10.20;80.80;;;;;;4921460;29;20242;-60
2022/03/11 12:42:00;;;;;;;8.30;6.07;;;10.30;82.40;;;;;;4921010;29;20242;-59
2022/03/11 12:44:29;;;;;;;8.43;5.43;;;10.50;81.20;;;;;;4918859;29;20235;-60
2022/03/11 12:46:58;;;;;;;9.90;5.83;;;10.30;83.20;;;;;;4919512;29;20242;-60
2022/03/11 12:49:27;;;;;;;8.37;5.80;;;10.40;82.30;;;;;;4918200;29;20259;-60
2022/03/11 12:52:19;;;;;;;8.87;5.90;;;10.40;83.50;;;;;;4916954;29;20246;-60
2022/03/11 12:54:48;;;;;;;10.10;5.40;;;10.70;82.40;;;;;;4918828;29;20243;-60
2022/03/11 12:57:16;;;;;;;9.37;5.30;;;10.60;82.20;;;;;;4917869;29;20239;-59
2022/03/11 12:59:45;;;;;;;11.17;5.90;;;10.70;80.50;;;;;;4919925;29;20646;-60
2022/03/11 13:02:16;;;;;;;8.57;5.43;;;10.70;79.00;;;;;;4919583;29;20325;-60
2022/03/11 13:04:45;;;;;;;10.77;5.63;;;10.50;78.50;;;;;;4920163;29;20592;-60